createdAt,value
2023-02-04T00:00:54.720Z,82.15
2023-02-04T00:05:56.182Z,82.03
2023-02-04T00:10:57.646Z,81.67
2023-02-04T00:15:59.220Z,82.25
2023-02-04T00:21:00.779Z,80.84
2023-02-04T00:26:02.185Z,78.08
2023-02-04T00:31:03.761Z,75.61
2023-02-04T00:36:05.453Z,76.58
2023-02-04T00:41:07.109Z,78.61
2023-02-04T00:46:08.554Z,82.76
2023-02-04T00:51:10.060Z,82.13
2023-02-04T00:56:11.970Z,83.04
2023-02-04T01:01:13.579Z,85.06
2023-02-04T01:06:15.045Z,83.84
2023-02-04T01:11:17.239Z,83.66
2023-02-04T01:16:18.733Z,85.70
2023-02-04T01:21:20.174Z,86.77
2023-02-04T01:26:22.553Z,87.01
2023-02-04T01:31:24.117Z,87.56
2023-02-04T01:36:25.564Z,85.97
2023-02-04T01:41:27.899Z,87.03
2023-02-04T01:46:29.454Z,81.70
2023-02-04T01:51:32.049Z,81.87
2023-02-04T01:56:33.515Z,81.21
2023-02-04T02:01:41.965Z,81.58
2023-02-04T02:06:52.347Z,79.87
2023-02-04T02:11:54.210Z,79.11
2023-02-04T02:16:55.750Z,79.57
2023-02-04T02:22:05.060Z,79.22
2023-02-04T02:27:08.957Z,80.04
2023-02-04T02:32:13.059Z,79.10
2023-02-04T02:37:14.578Z,77.84
2023-02-04T02:42:17.912Z,76.92
2023-02-04T02:47:22.934Z,75.97
2023-02-04T02:52:24.503Z,76.79
2023-02-04T02:57:26.034Z,77.17
2023-02-04T03:02:27.579Z,77.39
2023-02-04T03:07:29.140Z,76.84
2023-02-04T03:12:30.643Z,75.25
2023-02-04T03:17:32.370Z,74.90
2023-02-04T03:22:34.204Z,74.94
2023-02-04T03:27:35.712Z,75.29
2023-02-04T03:32:37.146Z,76.14
2023-02-04T03:37:39.211Z,74.78
2023-02-04T03:42:40.765Z,74.74
2023-02-04T03:47:42.174Z,74.72
2023-02-04T03:52:44.801Z,72.48
2023-02-04T03:57:46.439Z,72.12
2023-02-04T04:02:47.913Z,73.43
2023-02-04T04:07:49.377Z,73.60
2023-02-04T04:12:50.855Z,72.94
2023-02-04T04:17:52.274Z,72.34
2023-02-04T04:22:53.832Z,72.39
2023-02-04T04:27:55.275Z,72.79
2023-02-04T04:32:56.689Z,72.13
2023-02-04T04:37:58.273Z,72.40
2023-02-04T04:42:59.678Z,72.35
2023-02-04T04:48:01.144Z,71.93
2023-02-04T04:53:02.675Z,72.04
2023-02-04T04:58:05.761Z,72.58
2023-02-04T05:03:07.660Z,71.79
2023-02-04T05:08:14.051Z,71.92
2023-02-04T05:13:16.023Z,72.48
2023-02-04T05:18:17.449Z,70.59
2023-02-04T05:23:18.969Z,70.44
2023-02-04T05:28:20.448Z,70.55
2023-02-04T05:33:21.895Z,70.37
2023-02-04T05:38:23.297Z,70.30
2023-02-04T05:43:24.724Z,70.16
2023-02-04T05:48:26.165Z,71.01
2023-02-04T05:53:27.655Z,71.31
2023-02-04T05:58:33.435Z,70.75
2023-02-04T06:03:35.142Z,71.28
2023-02-04T06:08:36.593Z,71.31
2023-02-04T06:13:38.025Z,70.94
2023-02-04T06:18:39.438Z,72.09
2023-02-04T06:23:40.846Z,71.47
2023-02-04T06:28:42.389Z,71.25
2023-02-04T06:33:43.844Z,72.14
2023-02-04T06:38:45.367Z,72.33
2023-02-04T06:43:46.789Z,71.74
2023-02-04T06:48:48.226Z,71.42
2023-02-04T06:53:50.034Z,71.56
2023-02-04T06:58:51.516Z,71.38
2023-02-04T07:03:52.951Z,69.93
2023-02-04T07:08:54.401Z,70.81
2023-02-04T07:13:55.824Z,71.48
2023-02-04T07:18:57.248Z,71.43
2023-02-04T07:23:58.683Z,70.02
2023-02-04T07:29:00.183Z,70.13
2023-02-04T07:34:01.656Z,69.70
2023-02-04T07:39:03.233Z,70.37
2023-02-04T07:44:04.859Z,70.00
2023-02-04T07:49:06.303Z,70.02
2023-02-04T07:54:07.716Z,69.76
2023-02-04T07:59:09.130Z,70.31
2023-02-04T08:04:10.607Z,70.06
2023-02-04T08:09:12.081Z,70.54
2023-02-04T08:14:13.595Z,69.60
2023-02-04T08:19:18.992Z,67.91
2023-02-04T08:24:20.481Z,67.32
2023-02-04T08:29:21.917Z,66.99
2023-02-04T08:34:23.360Z,66.03
2023-02-04T08:39:24.757Z,66.00
2023-02-04T08:44:26.196Z,66.78
2023-02-04T08:49:27.895Z,64.83
2023-02-04T08:54:29.322Z,65.00
2023-02-04T08:59:30.842Z,65.39
2023-02-04T09:04:32.445Z,63.97
2023-02-04T09:09:33.916Z,62.47
2023-02-04T09:14:35.422Z,63.35
2023-02-04T09:19:36.839Z,64.61
2023-02-04T09:24:38.265Z,67.14
2023-02-04T09:29:40.027Z,66.52
2023-02-04T09:34:41.443Z,66.58
2023-02-04T09:39:42.853Z,66.80
2023-02-04T09:44:45.494Z,67.15
2023-02-04T09:49:47.495Z,66.63
2023-02-04T09:54:48.972Z,66.68
2023-02-04T09:59:53.739Z,68.18
2023-02-04T10:04:57.841Z,68.41
2023-02-04T10:09:59.459Z,68.32
2023-02-04T10:15:02.191Z,66.75
2023-02-04T10:20:03.802Z,67.86
2023-02-04T10:25:12.299Z,66.66
2023-02-04T10:30:23.282Z,67.49
2023-02-04T10:35:24.862Z,67.07
2023-02-04T10:40:27.463Z,67.22
2023-02-04T10:45:30.331Z,68.09
2023-02-04T10:50:32.130Z,68.22
2023-02-04T10:55:33.797Z,67.91
2023-02-04T11:00:35.198Z,65.10
2023-02-04T11:05:37.070Z,64.55
2023-02-04T11:10:38.559Z,65.71
2023-02-04T11:15:55.721Z,63.79
2023-02-04T11:20:59.313Z,64.47
2023-02-04T11:26:08.179Z,61.38
2023-02-04T11:31:21.832Z,61.68
2023-02-04T11:36:23.650Z,60.39
2023-02-04T11:41:29.251Z,55.96
2023-02-04T11:46:30.849Z,58.80
2023-02-04T11:51:35.577Z,56.42
2023-02-04T11:56:36.994Z,55.71
2023-02-04T12:01:38.964Z,55.58
2023-02-04T12:06:40.379Z,55.18
2023-02-04T12:12:02.219Z,55.62
2023-02-04T12:17:16.292Z,56.77
2023-02-04T12:22:18.081Z,56.69
2023-02-04T12:27:19.583Z,57.66
2023-02-04T12:32:21.246Z,57.49
2023-02-04T12:37:22.740Z,55.27
2023-02-04T12:42:24.138Z,53.95
2023-02-04T12:47:25.633Z,55.46
2023-02-04T12:52:27.099Z,56.67
2023-02-04T12:57:29.549Z,56.75
2023-02-04T13:02:31.001Z,57.04
2023-02-04T13:07:33.402Z,57.57
2023-02-04T13:12:34.817Z,57.78
2023-02-04T13:17:36.406Z,55.94
2023-02-04T13:22:38.180Z,55.72
2023-02-04T13:27:39.855Z,55.37
2023-02-04T13:32:41.891Z,54.91
2023-02-04T13:37:43.341Z,54.63
2023-02-04T13:42:44.898Z,53.84
2023-02-04T13:47:48.046Z,54.04
2023-02-04T13:52:49.518Z,55.52
2023-02-04T13:57:50.946Z,55.24
2023-02-04T14:02:52.420Z,55.50
2023-02-04T14:07:53.843Z,58.59
2023-02-04T14:12:55.426Z,61.35
2023-02-04T14:17:56.883Z,63.48
2023-02-04T14:22:58.599Z,63.29
2023-02-04T14:28:00.384Z,64.95
2023-02-04T14:33:01.921Z,63.99
2023-02-04T14:38:03.860Z,63.67
2023-02-04T14:43:05.280Z,63.57
2023-02-04T14:48:08.162Z,62.92
2023-02-04T14:53:09.582Z,62.79
2023-02-04T14:58:10.984Z,61.92
2023-02-04T15:03:12.409Z,62.67
2023-02-04T15:08:13.877Z,62.44
2023-02-04T15:13:15.333Z,62.30
2023-02-04T15:18:16.758Z,64.32
2023-02-04T15:23:18.273Z,64.37
2023-02-04T15:28:19.704Z,64.71
2023-02-04T15:33:21.231Z,64.40
2023-02-04T15:38:22.867Z,64.56
2023-02-04T15:43:24.370Z,65.36
2023-02-04T15:48:27.489Z,70.82
2023-02-04T15:53:29.435Z,73.16
2023-02-04T15:58:31.418Z,71.98
2023-02-04T16:03:32.839Z,72.31
2023-02-04T16:08:34.333Z,70.64
2023-02-04T16:13:36.816Z,70.76
2023-02-04T16:18:38.257Z,70.18
2023-02-04T16:23:39.688Z,69.12
2023-02-04T16:28:41.134Z,68.60
2023-02-04T16:33:42.547Z,68.82
2023-02-04T16:38:44.146Z,69.52
2023-02-04T16:43:45.643Z,70.24
2023-02-04T16:48:47.108Z,70.08
2023-02-04T16:53:48.644Z,69.49
2023-02-04T16:58:50.050Z,69.35
2023-02-04T17:03:57.958Z,69.03
2023-02-04T17:08:59.607Z,69.27
2023-02-04T17:14:05.161Z,68.80
2023-02-04T17:19:06.577Z,68.11
2023-02-04T17:24:08.828Z,68.00
2023-02-04T17:29:12.908Z,68.32
2023-02-04T17:34:14.471Z,68.52
2023-02-04T17:39:16.013Z,68.51
2023-02-04T17:44:20.019Z,69.20
2023-02-04T17:49:21.503Z,68.89
2023-02-04T17:54:22.986Z,67.76
2023-02-04T17:59:24.444Z,67.70
2023-02-04T18:04:26.165Z,67.97
2023-02-04T18:09:27.594Z,67.05
2023-02-04T18:14:29.139Z,65.84
2023-02-04T18:19:36.903Z,65.44
2023-02-04T18:24:40.411Z,65.99
2023-02-04T18:29:44.366Z,65.94
2023-02-04T18:34:49.264Z,65.03
2023-02-04T18:39:50.843Z,65.47
2023-02-04T18:44:54.947Z,65.14
2023-02-04T18:49:56.527Z,64.86
2023-02-04T18:55:00.597Z,64.90
2023-02-04T19:00:28.073Z,64.89
2023-02-04T19:05:32.811Z,64.82
2023-02-04T19:10:39.539Z,64.89
2023-02-04T19:15:40.949Z,65.33
2023-02-04T19:20:42.349Z,64.76
2023-02-04T19:25:49.333Z,62.94
2023-02-04T19:30:58.325Z,62.87
2023-02-04T19:36:16.775Z,64.00
2023-02-04T19:41:29.029Z,63.16
2023-02-04T19:46:34.024Z,62.78
2023-02-04T19:51:36.050Z,63.69
2023-02-04T19:56:39.912Z,63.55
2023-02-04T20:01:41.492Z,63.71
2023-02-04T20:06:44.312Z,63.03
2023-02-04T20:11:54.878Z,62.57
2023-02-04T20:17:20.772Z,62.07
2023-02-04T20:22:42.745Z,62.95
2023-02-04T20:27:44.201Z,63.45
2023-02-04T20:32:53.890Z,63.26
2023-02-04T20:37:59.239Z,64.19
2023-02-04T20:43:03.105Z,64.29
2023-02-04T20:48:16.658Z,64.86
2023-02-04T20:53:29.595Z,65.30
2023-02-04T20:58:39.464Z,65.23
2023-02-04T21:03:40.918Z,65.57
2023-02-04T21:08:48.216Z,65.15
2023-02-04T21:13:50.871Z,65.10
2023-02-04T21:18:54.094Z,65.96
2023-02-04T21:23:55.655Z,67.00
2023-02-04T21:28:57.135Z,66.32
2023-02-04T21:33:58.576Z,66.79
2023-02-04T21:39:00.650Z,66.74
2023-02-04T21:44:02.073Z,67.67
2023-02-04T21:49:04.931Z,67.43
2023-02-04T21:54:06.724Z,67.98
2023-02-04T21:59:08.137Z,67.75
2023-02-04T22:04:09.551Z,67.50
2023-02-04T22:09:10.967Z,67.40
2023-02-04T22:14:12.856Z,67.21
2023-02-04T22:19:14.263Z,67.47
2023-02-04T22:24:15.676Z,66.92
2023-02-04T22:29:23.588Z,67.30
2023-02-04T22:34:25.845Z,67.06
2023-02-04T22:39:27.383Z,67.67
2023-02-04T22:44:28.802Z,67.49
2023-02-04T22:49:32.657Z,67.11
2023-02-04T22:54:34.342Z,66.40
2023-02-04T22:59:35.942Z,66.78
2023-02-04T23:04:37.408Z,66.53
2023-02-04T23:09:39.466Z,66.44
2023-02-04T23:14:48.364Z,67.44
2023-02-04T23:19:49.795Z,66.54
2023-02-04T23:24:51.246Z,67.00
2023-02-04T23:29:52.686Z,67.14
2023-02-04T23:34:54.092Z,67.27
2023-02-04T23:39:55.505Z,67.74
2023-02-04T23:44:56.946Z,67.67
2023-02-04T23:49:58.383Z,67.73
2023-02-04T23:54:59.927Z,67.88
